Time;durP1;ratioP1;P1;durP2;ratioP2;P2;SDS_P1;SDS_P2;PMS_P1;PMS_P2;Temp;Humidity;BMP_temperature;BMP_pressure;BME280_temperature;BME280_humidity;BME280_pressure;Samples;Min_cycle;Max_cycle;Signal;HPM_P1;HPM_P2
2021/07/20 00:01:31;;;;;;;;;19.33;18.33;;;;;-149.00;100.00;66333.84;5082383;28;47583;-78
2021/07/20 00:03:56;;;;;;;;;14.67;14.67;;;;;-149.00;100.00;66333.84;5084412;28;45446;-78
2021/07/20 00:06:21;;;;;;;;;17.67;17.00;;;;;-149.00;100.00;66333.84;5082596;28;45291;-79
2021/07/20 00:08:47;;;;;;;;;16.00;16.00;;;;;-149.00;100.00;66333.84;5083923;28;45394;-78
2021/07/20 00:11:12;;;;;;;;;19.00;18.33;;;;;-149.00;100.00;66333.84;5083257;28;45312;-78
2021/07/20 00:13:38;;;;;;;;;20.33;18.33;;;;;-149.00;100.00;66333.84;5083835;28;45658;-78
2021/07/20 00:16:04;;;;;;;;;18.33;18.00;;;;;-149.00;100.00;66333.84;5082662;28;45310;-78
2021/07/20 00:18:33;;;;;;;;;18.00;18.00;;;;;-149.00;100.00;66333.84;5067156;28;45255;-79
2021/07/20 00:21:00;;;;;;;;;18.00;18.00;;;;;-149.00;100.00;66333.84;5083113;28;45591;-78
2021/07/20 00:23:26;;;;;;;;;19.67;18.33;;;;;-149.00;100.00;66333.84;5098586;27;46364;-78
2021/07/20 00:25:52;;;;;;;;;18.67;17.67;;;;;-149.00;100.00;66333.84;5084899;27;45355;-79
2021/07/20 00:28:18;;;;;;;;;18.00;18.00;;;;;-149.00;100.00;66333.84;5103833;27;45367;-78
2021/07/20 00:30:44;;;;;;;;;18.33;17.33;;;;;-149.00;100.00;66333.84;5084663;27;46202;-79
2021/07/20 00:33:11;;;;;;;;;20.00;19.33;;;;;-149.00;100.00;66333.84;5103896;27;45328;-78
2021/07/20 00:35:36;;;;;;;;;17.67;16.00;;;;;-149.00;100.00;66333.84;5103263;27;45255;-78
2021/07/20 00:38:02;;;;;;;;;17.67;16.00;;;;;-149.00;100.00;66333.84;5084835;27;45227;-78
2021/07/20 00:40:30;;;;;;;;;17.00;17.00;;;;;-149.00;100.00;66333.84;5103534;27;45937;-78
2021/07/20 00:42:56;;;;;;;;;15.00;15.00;;;;;-149.00;100.00;66333.84;5102966;27;46183;-78
2021/07/20 00:45:22;;;;;;;;;21.00;19.33;;;;;-149.00;100.00;66333.84;5084200;27;44822;-78
2021/07/20 00:47:48;;;;;;;;;21.00;18.33;;;;;-149.00;100.00;66333.84;5083354;27;45253;-78
2021/07/20 00:50:18;;;;;;;;;18.00;16.00;;;;;-149.00;100.00;66333.84;5084388;27;46923;-78
2021/07/20 00:52:44;;;;;;;;;17.00;17.00;;;;;-149.00;100.00;66333.84;5103821;27;45230;-78
2021/07/20 00:55:10;;;;;;;;;18.67;18.33;;;;;-149.00;100.00;66333.84;5084838;27;45228;-78
2021/07/20 00:57:37;;;;;;;;;18.67;18.33;;;;;-149.00;100.00;66333.84;5084947;27;45384;-78
2021/07/20 01:00:06;;;;;;;;;19.00;18.00;;;;;-149.00;100.00;66333.84;5103018;27;45317;-78
2021/07/20 01:02:31;;;;;;;;;19.00;19.00;;;;;-149.00;100.00;66333.84;5103255;27;47170;-78
2021/07/20 01:04:57;;;;;;;;;16.67;16.33;;;;;-149.00;100.00;66333.84;5105932;27;45203;-78
2021/07/20 01:07:24;;;;;;;;;19.67;19.67;;;;;-149.00;100.00;66333.84;5087386;27;45271;-78
2021/07/20 01:09:52;;;;;;;;;18.00;17.33;;;;;-149.00;100.00;66333.84;5105510;27;45279;-78
2021/07/20 01:12:22;;;;;;;;;20.00;18.67;;;;;-149.00;100.00;66333.84;5105581;27;46381;-78
2021/07/20 01:14:50;;;;;;;;;19.33;17.33;;;;;-149.00;100.00;66333.84;5104764;27;45331;-78
2021/07/20 01:17:16;;;;;;;;;12.00;11.33;;;;;-149.00;100.00;66333.84;5106045;27;45510;-78
2021/07/20 01:19:51;;;;;;;;;17.00;16.00;;;;;-149.00;100.00;66333.84;5105217;27;45442;-78
2021/07/20 01:22:22;;;;;;;;;19.00;18.67;;;;;-149.00;100.00;66333.84;5087119;27;45433;-78
2021/07/20 01:24:47;;;;;;;;;20.00;19.67;;;;;-149.00;100.00;66333.84;5105223;27;45343;-78
2021/07/20 01:27:13;;;;;;;;;16.67;16.67;;;;;-149.00;100.00;66333.84;5087056;27;45205;-78
2021/07/20 01:29:40;;;;;;;;;18.33;18.00;;;;;-149.00;100.00;66333.84;5104826;27;45380;-78
2021/07/20 01:32:06;;;;;;;;;16.67;16.67;;;;;-149.00;100.00;66333.84;5104467;27;45231;-78
2021/07/20 01:34:33;;;;;;;;;18.00;17.67;;;;;-149.00;100.00;66333.84;5085557;27;45363;-78
2021/07/20 01:36:59;;;;;;;;;17.00;17.00;;;;;-149.00;100.00;66333.84;5104755;27;45312;-79
2021/07/20 01:39:26;;;;;;;;;18.00;16.67;;;;;-149.00;100.00;66333.84;5104386;27;45310;-78
2021/07/20 01:41:52;;;;;;;;;21.00;19.67;;;;;-149.00;100.00;66333.84;5104900;27;45294;-78
2021/07/20 01:44:19;;;;;;;;;21.00;19.67;;;;;-149.00;100.00;66333.84;5104798;27;45308;-78
2021/07/20 01:46:46;;;;;;;;;20.00;19.00;;;;;-149.00;100.00;66333.84;5086249;27;45420;-78
2021/07/20 01:49:15;;;;;;;;;21.00;18.67;;;;;-149.00;100.00;66333.84;5104622;27;45375;-78
2021/07/20 01:51:41;;;;;;;;;21.67;20.00;;;;;-149.00;100.00;66333.84;5104758;27;45332;-78
2021/07/20 01:54:08;;;;;;;;;18.33;15.67;;;;;-149.00;100.00;66333.84;5086348;27;46180;-78
2021/07/20 01:56:34;;;;;;;;;21.00;20.67;;;;;-149.00;100.00;66333.84;5104880;27;45287;-78
2021/07/20 01:59:00;;;;;;;;;18.00;17.67;;;;;-149.00;100.00;66333.84;5105145;27;45251;-78
2021/07/20 02:01:39;;;;;;;;;20.00;20.00;;;;;-149.00;100.00;66333.84;5104867;27;45560;-78
2021/07/20 02:09:24;;;;;;;;;20.33;18.67;;;;;-149.00;100.00;66333.84;5103364;27;45320;-78
2021/07/20 02:11:55;;;;;;;;;22.67;21.67;;;;;-149.00;100.00;66333.84;5084912;27;47238;-78
2021/07/20 02:14:25;;;;;;;;;20.00;18.33;;;;;-149.00;100.00;66333.84;5102872;27;45304;-78
2021/07/20 02:16:52;;;;;;;;;19.33;18.00;;;;;-149.00;100.00;66333.84;5103755;27;45337;-78
2021/07/20 02:19:34;;;;;;;;;24.00;22.33;;;;;-149.00;100.00;66333.84;5104473;27;45597;-78
2021/07/20 02:22:02;;;;;;;;;17.00;17.00;;;;;-149.00;100.00;66333.84;5103452;27;45521;-78
2021/07/20 02:24:32;;;;;;;;;21.67;18.00;;;;;-149.00;100.00;66333.84;5103735;27;45347;-78
2021/07/20 02:27:04;;;;;;;;;17.67;17.67;;;;;-149.00;100.00;66333.84;5085784;27;45336;-78
2021/07/20 02:29:31;;;;;;;;;23.00;19.67;;;;;-149.00;100.00;66333.84;5103481;27;45265;-78
2021/07/20 02:31:59;;;;;;;;;26.00;22.00;;;;;-149.00;100.00;66333.84;5104109;27;45408;-78
2021/07/20 02:34:28;;;;;;;;;18.33;18.33;;;;;-149.00;100.00;66333.84;5103807;27;44696;-78
2021/07/20 02:36:55;;;;;;;;;22.33;20.67;;;;;-149.00;100.00;66333.84;5104776;27;45274;-78
2021/07/20 02:39:23;;;;;;;;;19.67;19.67;;;;;-149.00;100.00;66333.84;5105611;27;45329;-78
2021/07/20 02:41:50;;;;;;;;;24.33;22.67;;;;;-149.00;100.00;66333.84;5085783;27;47268;-78
2021/07/20 02:44:17;;;;;;;;;22.00;20.00;;;;;-149.00;100.00;66333.84;5085853;27;45368;-78
2021/07/20 02:46:43;;;;;;;;;19.00;18.33;;;;;-149.00;100.00;66333.84;5103653;27;45243;-78
2021/07/20 02:49:15;;;;;;;;;21.33;16.33;;;;;-149.00;100.00;66333.84;5103231;27;45344;-78
2021/07/20 02:51:43;;;;;;;;;19.67;18.00;;;;;-149.00;100.00;66333.84;5102387;27;46129;-78
2021/07/20 02:54:08;;;;;;;;;19.00;17.67;;;;;-149.00;100.00;66333.84;5103298;27;45212;-78
2021/07/20 02:56:35;;;;;;;;;21.00;19.33;;;;;-149.00;100.00;66333.84;5102632;27;45491;-79
2021/07/20 02:59:04;;;;;;;;;16.67;16.00;;;;;-149.00;100.00;66333.84;5102976;27;45189;-78
2021/07/20 03:01:32;;;;;;;;;19.00;19.00;;;;;-149.00;100.00;66333.84;5102995;27;46384;-78
2021/07/20 03:03:58;;;;;;;;;21.00;21.00;;;;;-149.00;100.00;66333.84;5102963;27;45217;-78
2021/07/20 03:06:27;;;;;;;;;21.33;20.67;;;;;-149.00;100.00;66333.84;5103336;27;45253;-78
2021/07/20 03:08:58;;;;;;;;;18.67;17.00;;;;;-149.00;100.00;66333.84;5102298;27;45402;-78
2021/07/20 03:11:28;;;;;;;;;23.67;21.67;;;;;-149.00;100.00;66333.84;5101960;27;45237;-78
2021/07/20 03:13:57;;;;;;;;;18.00;17.00;;;;;-149.00;100.00;66333.84;5102498;27;45364;-78
2021/07/20 03:16:24;;;;;;;;;24.00;23.00;;;;;-149.00;100.00;66333.84;5102126;27;45247;-78
2021/07/20 03:18:52;;;;;;;;;21.33;19.33;;;;;-149.00;100.00;66333.84;5083285;27;47515;-78
2021/07/20 03:21:18;;;;;;;;;26.33;22.67;;;;;-149.00;100.00;66333.84;5101793;27;45318;-78
2021/07/20 03:23:46;;;;;;;;;20.33;19.33;;;;;-149.00;100.00;66333.84;5101810;27;45333;-78
2021/07/20 03:26:12;;;;;;;;;21.33;21.33;;;;;-149.00;100.00;66333.84;5101315;27;45245;-78
2021/07/20 03:28:39;;;;;;;;;25.00;23.67;;;;;-149.00;100.00;66333.84;5101993;27;45284;-78
2021/07/20 03:31:05;;;;;;;;;23.67;22.00;;;;;-149.00;100.00;66333.84;5068410;28;47372;-78
2021/07/20 03:33:31;;;;;;;;;21.67;20.33;;;;;-149.00;100.00;66333.84;5081207;28;45344;-78
2021/07/20 03:35:57;;;;;;;;;20.67;19.67;;;;;-149.00;100.00;66333.84;5063057;28;45368;-78
2021/07/20 03:38:24;;;;;;;;;24.00;23.67;;;;;-149.00;100.00;66333.84;5080928;28;45269;-78
2021/07/20 03:40:52;;;;;;;;;20.33;20.33;;;;;-149.00;100.00;66333.84;5081515;28;46414;-78
2021/07/20 03:43:22;;;;;;;;;23.00;23.00;;;;;-149.00;100.00;66333.84;5081059;28;45221;-78
2021/07/20 03:45:48;;;;;;;;;19.67;18.67;;;;;-149.00;100.00;66333.84;5062567;28;45334;-78
2021/07/20 03:48:14;;;;;;;;;22.00;21.67;;;;;-149.00;100.00;66333.84;5080841;28;45304;-78
2021/07/20 03:50:47;;;;;;;;;18.33;18.00;;;;;-149.00;100.00;66333.84;5081339;28;45442;-78
2021/07/20 03:53:13;;;;;;;;;24.67;22.00;;;;;-149.00;100.00;66333.84;5081411;28;45379;-78
2021/07/20 03:55:47;;;;;;;;;24.00;21.00;;;;;-149.00;100.00;66333.84;5062446;28;45436;-78
2021/07/20 03:58:15;;;;;;;;;23.67;21.33;;;;;-149.00;100.00;66333.84;5080836;28;45276;-78
2021/07/20 04:00:41;;;;;;;;;21.00;20.00;;;;;-149.00;100.00;66333.84;5081194;28;45290;-78
2021/07/20 04:03:24;;;;;;;;;22.67;21.67;;;;;-149.00;100.00;66333.84;5081020;28;45154;-78
2021/07/20 04:05:53;;;;;;;;;22.00;22.00;;;;;-149.00;100.00;66333.84;5063146;28;45246;-78
2021/07/20 04:08:20;;;;;;;;;20.67;19.00;;;;;-149.00;100.00;66333.84;5080999;28;45241;-77
2021/07/20 04:10:47;;;;;;;;;21.00;18.67;;;;;-149.00;100.00;66333.84;5062694;28;47466;-78
2021/07/20 04:13:13;;;;;;;;;19.00;18.33;;;;;-149.00;100.00;66333.84;5081532;28;45357;-78
2021/07/20 04:15:45;;;;;;;;;20.33;19.33;;;;;-149.00;100.00;66333.84;5081568;28;45326;-78
2021/07/20 04:18:12;;;;;;;;;19.67;18.33;;;;;-149.00;100.00;66333.84;5081936;28;45391;-78
2021/07/20 04:20:38;;;;;;;;;24.33;20.00;;;;;-149.00;100.00;66333.84;5080848;28;46073;-78
2021/07/20 04:23:05;;;;;;;;;21.67;20.33;;;;;-149.00;100.00;66333.84;5093535;27;45360;-78
2021/07/20 04:25:32;;;;;;;;;22.00;21.67;;;;;-149.00;100.00;66333.84;5101740;27;45364;-78
2021/07/20 04:27:57;;;;;;;;;19.00;19.00;;;;;-149.00;100.00;66333.84;5101180;27;45324;-78
2021/07/20 04:30:23;;;;;;;;;18.67;18.67;;;;;-149.00;100.00;66333.84;5100644;27;45478;-77
2021/07/20 04:32:49;;;;;;;;;20.33;18.67;;;;;-149.00;100.00;66333.84;5101131;27;45166;-77
2021/07/20 04:35:17;;;;;;;;;20.33;20.33;;;;;-149.00;100.00;66333.84;5100868;27;45241;-78
2021/07/20 04:37:44;;;;;;;;;21.33;20.33;;;;;-149.00;100.00;66333.84;5099262;27;45416;-77
2021/07/20 04:40:13;;;;;;;;;21.33;20.67;;;;;-149.00;100.00;66333.84;5082296;27;47667;-78
2021/07/20 04:42:40;;;;;;;;;19.33;19.33;;;;;-149.00;100.00;66333.84;5100520;27;45273;-78
2021/07/20 04:45:08;;;;;;;;;17.67;17.67;;;;;-149.00;100.00;66333.84;5100776;27;45228;-78
2021/07/20 04:47:36;;;;;;;;;18.00;16.67;;;;;-149.00;100.00;66333.84;5082301;27;46191;-77
2021/07/20 04:50:05;;;;;;;;;24.67;22.00;;;;;-149.00;100.00;66333.84;5100562;27;45319;-78
2021/07/20 04:52:32;;;;;;;;;22.33;20.00;;;;;-149.00;100.00;66333.84;5100538;27;45300;-78
2021/07/20 04:54:58;;;;;;;;;21.00;19.00;;;;;-149.00;100.00;66333.84;5100560;27;45358;-78
2021/07/20 04:57:23;;;;;;;;;18.33;17.67;;;;;-149.00;100.00;66333.84;5100682;27;45262;-78
2021/07/20 04:59:49;;;;;;;;;20.00;18.00;;;;;-149.00;100.00;66333.84;5100500;27;45326;-78
2021/07/20 05:02:16;;;;;;;;;21.00;20.00;;;;;-149.00;100.00;66333.84;5100659;27;45314;-78
2021/07/20 05:04:43;;;;;;;;;20.67;19.33;;;;;-149.00;100.00;66333.84;5100636;27;45326;-78
2021/07/20 05:07:12;;;;;;;;;23.33;21.00;;;;;-149.00;100.00;66333.84;5081854;27;46658;-78
2021/07/20 05:09:38;;;;;;;;;15.33;13.33;;;;;-149.00;100.00;66333.84;5098508;27;47078;-78
2021/07/20 05:12:05;;;;;;;;;18.67;18.67;;;;;-149.00;100.00;66333.84;5100392;27;45356;-78
2021/07/20 05:14:31;;;;;;;;;23.33;21.67;;;;;-149.00;100.00;66333.84;5100368;27;45287;-78
2021/07/20 05:16:57;;;;;;;;;26.33;21.33;;;;;-149.00;100.00;66333.84;5082075;27;45267;-78
2021/07/20 05:19:23;;;;;;;;;21.67;21.00;;;;;-149.00;100.00;66333.84;5100225;27;46346;-78
2021/07/20 05:21:49;;;;;;;;;22.33;20.00;;;;;-149.00;100.00;66333.84;5100626;27;45148;-78
2021/07/20 05:24:15;;;;;;;;;19.67;18.33;;;;;-149.00;100.00;66333.84;5099050;27;45308;-78
2021/07/20 05:26:45;;;;;;;;;21.00;20.00;;;;;-149.00;100.00;66333.84;5100135;27;45228;-78
2021/07/20 05:29:16;;;;;;;;;21.00;20.33;;;;;-149.00;100.00;66333.84;5081961;27;47219;-78
2021/07/20 05:31:45;;;;;;;;;19.33;19.33;;;;;-149.00;100.00;66333.84;5079517;27;45305;-78
2021/07/20 05:34:13;;;;;;;;;21.00;21.00;;;;;-149.00;100.00;66333.84;5079317;28;45349;-78
2021/07/20 05:36:39;;;;;;;;;26.33;23.33;;;;;-149.00;100.00;66333.84;5061223;28;45419;-78
2021/07/20 05:39:04;;;;;;;;;22.33;20.67;;;;;-149.00;100.00;66333.84;5079370;28;45257;-78
2021/07/20 05:41:30;;;;;;;;;23.33;21.67;;;;;-149.00;100.00;66333.84;5079923;28;45232;-78
2021/07/20 05:43:56;;;;;;;;;18.67;18.67;;;;;-149.00;100.00;66333.84;5080575;28;45154;-78
2021/07/20 05:46:22;;;;;;;;;25.33;22.00;;;;;-149.00;100.00;66333.84;5080589;28;45248;-78
2021/07/20 05:48:49;;;;;;;;;23.33;23.33;;;;;-149.00;100.00;66333.84;5066141;28;48143;-78
2021/07/20 05:51:16;;;;;;;;;26.00;23.00;;;;;-149.00;100.00;66333.84;5084339;28;45340;-78
2021/07/20 05:53:42;;;;;;;;;21.00;19.67;;;;;-149.00;100.00;66333.84;5085434;28;45426;-78
2021/07/20 05:56:08;;;;;;;;;21.00;20.33;;;;;-149.00;100.00;66333.84;5086356;28;45214;-78
2021/07/20 05:58:35;;;;;;;;;24.33;21.67;;;;;-149.00;100.00;66333.84;5087390;28;45908;-79
2021/07/20 06:01:04;;;;;;;;;22.67;21.00;;;;;-149.00;100.00;66333.84;5083863;28;45150;-79
2021/07/20 06:03:32;;;;;;;;;23.33;22.67;;;;;-149.00;100.00;66333.84;5084251;28;45305;-78
2021/07/20 06:05:58;;;;;;;;;27.33;24.00;;;;;-149.00;100.00;66333.84;5084014;28;45248;-78
2021/07/20 06:08:27;;;;;;;;;24.33;24.00;;;;;-149.00;100.00;66333.84;5086694;28;45174;-78
2021/07/20 06:10:56;;;;;;;;;22.00;22.00;;;;;-149.00;100.00;66333.84;5067164;28;45442;-78
2021/07/20 06:13:27;;;;;;;;;23.33;21.67;;;;;-149.00;100.00;66333.84;5083030;28;45319;-78
2021/07/20 06:15:53;;;;;;;;;26.33;25.00;;;;;-149.00;100.00;66333.84;5082541;28;45355;-78
2021/07/20 06:18:19;;;;;;;;;29.33;26.67;;;;;-149.00;100.00;66333.84;5083642;28;45354;-79
2021/07/20 06:20:59;;;;;;;;;26.00;24.00;;;;;-149.00;100.00;66333.84;5085549;28;45366;-79
2021/07/20 06:23:29;;;;;;;;;24.33;24.33;;;;;-149.00;100.00;66333.84;5098905;27;45224;-78
2021/07/20 06:25:56;;;;;;;;;25.67;22.67;;;;;-149.00;100.00;66333.84;5108158;27;45308;-78
2021/07/20 06:28:24;;;;;;;;;27.00;23.33;;;;;-149.00;100.00;66333.84;5109549;27;45297;-78
2021/07/20 06:30:51;;;;;;;;;27.00;25.67;;;;;-149.00;100.00;66333.84;5109855;27;45362;-78
2021/07/20 06:33:17;;;;;;;;;31.33;29.00;;;;;-149.00;100.00;66333.84;5111268;27;45282;-78
2021/07/20 06:35:43;;;;;;;;;32.67;30.33;;;;;-149.00;100.00;66333.84;5109826;27;45324;-78
2021/07/20 06:38:14;;;;;;;;;27.00;27.00;;;;;-149.00;100.00;66333.84;5109115;27;45370;-78
2021/07/20 06:40:40;;;;;;;;;28.33;25.67;;;;;-149.00;100.00;66333.84;5111667;27;45247;-78
2021/07/20 06:43:06;;;;;;;;;35.33;30.67;;;;;-149.00;100.00;66333.84;5111098;27;45173;-78
2021/07/20 06:45:32;;;;;;;;;27.67;27.00;;;;;-149.00;100.00;66333.84;5092847;27;45239;-78
2021/07/20 06:47:58;;;;;;;;;34.00;31.33;;;;;-149.00;100.00;66333.84;5090035;27;46087;-78
2021/07/20 06:50:23;;;;;;;;;28.67;27.33;;;;;-149.00;100.00;66333.84;5107233;27;45322;-78
2021/07/20 06:52:49;;;;;;;;;36.00;32.00;;;;;-149.00;100.00;66333.84;5110245;27;45240;-78
2021/07/20 06:55:15;;;;;;;;;35.67;31.67;;;;;-149.00;100.00;66333.84;5111529;27;45278;-78
2021/07/20 06:57:44;;;;;;;;;33.33;28.67;;;;;-149.00;100.00;66333.84;5111439;27;46418;-78
2021/07/20 07:00:10;;;;;;;;;34.67;31.00;;;;;-149.00;100.00;66333.84;5110594;27;45253;-77
2021/07/20 07:02:40;;;;;;;;;35.33;30.00;;;;;-149.00;100.00;66333.84;5111516;27;45274;-78
2021/07/20 07:05:10;;;;;;;;;33.67;31.00;;;;;-149.00;100.00;66333.84;5109361;27;45690;-77
2021/07/20 07:07:37;;;;;;;;;38.67;34.00;;;;;-149.00;100.00;66333.84;5108563;27;46214;-77
2021/07/20 07:10:06;;;;;;;;;33.00;30.67;;;;;-149.00;100.00;66333.84;5107443;27;45383;-77
2021/07/20 07:12:33;;;;;;;;;34.00;31.00;;;;;-149.00;100.00;66333.84;5090255;27;45296;-78
2021/07/20 07:15:03;;;;;;;;;33.00;30.33;;;;;-149.00;100.00;66333.84;5089351;27;46619;-78
2021/07/20 07:17:29;;;;;;;;;38.67;34.00;;;;;-149.00;100.00;66333.84;5089572;27;47202;-78
2021/07/20 07:19:56;;;;;;;;;35.33;31.67;;;;;-149.00;100.00;66333.84;5109184;27;45404;-77
2021/07/20 07:22:23;;;;;;;;;40.00;34.67;;;;;-149.00;100.00;66333.84;5107255;27;45367;-78
2021/07/20 07:24:51;;;;;;;;;38.00;32.00;;;;;-149.00;100.00;66333.84;5104765;27;45400;-78
2021/07/20 07:27:18;;;;;;;;;36.33;32.00;;;;;-149.00;100.00;66333.84;5108565;27;46718;-78
2021/07/20 07:29:45;;;;;;;;;38.00;33.33;;;;;-149.00;100.00;66333.84;5099865;27;45362;-78
2021/07/20 07:32:11;;;;;;;;;36.00;32.33;;;;;-149.00;100.00;66333.84;5085538;28;45320;-77
2021/07/20 07:34:37;;;;;;;;;39.00;34.00;;;;;-149.00;100.00;66333.84;5069277;28;46206;-77
2021/07/20 07:37:03;;;;;;;;;36.67;31.67;;;;;-149.00;100.00;66333.84;5086761;28;46029;-78
2021/07/20 07:39:31;;;;;;;;;37.33;32.67;;;;;-149.00;100.00;66333.84;5083342;28;45336;-78
2021/07/20 07:41:58;;;;;;;;;37.67;32.00;;;;;-149.00;100.00;66333.84;5065726;28;45289;-78
2021/07/20 07:44:25;;;;;;;;;42.00;35.00;;;;;-149.00;100.00;66333.84;5065294;28;45344;-78
2021/07/20 07:46:53;;;;;;;;;42.67;34.67;;;;;-149.00;100.00;66333.84;5082409;28;45327;-77
2021/07/20 07:49:20;;;;;;;;;39.67;33.33;;;;;-149.00;100.00;66333.84;5089207;28;45189;-77
2021/07/20 07:51:48;;;;;;;;;41.00;34.00;;;;;-149.00;100.00;66333.84;5088975;28;45265;-77
2021/07/20 07:54:14;;;;;;;;;35.33;31.67;;;;;-149.00;100.00;66333.84;5086739;28;45320;-78
2021/07/20 07:56:40;;;;;;;;;38.67;34.00;;;;;-149.00;100.00;66333.84;5087073;28;45263;-78
2021/07/20 07:59:09;;;;;;;;;34.67;31.00;;;;;-149.00;100.00;66333.84;5065962;28;45366;-77
2021/07/20 08:01:43;;;;;;;;;35.67;32.33;;;;;-149.00;100.00;66333.84;5091525;28;45178;-77
2021/07/20 08:04:09;;;;;;;;;36.67;32.67;;;;;-149.00;100.00;66333.84;5085756;28;45412;-77
2021/07/20 08:06:35;;;;;;;;;33.33;30.33;;;;;-149.00;100.00;66333.84;5085388;28;45363;-77
2021/07/20 08:09:01;;;;;;;;;39.33;34.00;;;;;-149.00;100.00;66333.84;5088915;28;45231;-77
2021/07/20 08:11:29;;;;;;;;;39.00;32.00;;;;;-149.00;100.00;66333.84;5088528;28;44632;-77
2021/07/20 08:13:59;;;;;;;;;41.33;33.33;;;;;-149.00;100.00;66333.84;5086840;28;45307;-77
2021/07/20 08:16:31;;;;;;;;;39.33;32.67;;;;;-149.00;100.00;66333.84;5082990;28;46267;-77
2021/07/20 08:19:00;;;;;;;;;41.00;34.67;;;;;-149.00;100.00;66333.84;5087270;28;44685;-77
2021/07/20 08:21:28;;;;;;;;;35.00;31.67;;;;;-149.00;100.00;66333.84;5082129;28;45263;-78
2021/07/20 08:23:55;;;;;;;;;34.00;30.67;;;;;-149.00;100.00;66333.84;5102754;27;45416;-77
2021/07/20 08:26:30;;;;;;;;;39.33;31.00;;;;;-149.00;100.00;66333.84;5104028;27;45336;-78
2021/07/20 08:29:03;;;;;;;;;36.00;32.00;;;;;-149.00;100.00;66333.84;5102600;27;45328;-78
2021/07/20 08:31:35;;;;;;;;;34.00;31.67;;;;;-149.00;100.00;66333.84;5088056;27;45488;-78
2021/07/20 08:34:04;;;;;;;;;38.67;30.33;;;;;-149.00;100.00;66333.84;5101239;27;45227;-77
2021/07/20 08:36:33;;;;;;;;;39.33;32.67;;;;;-149.00;100.00;66333.84;5101682;27;46067;-78
2021/07/20 08:39:01;;;;;;;;;37.00;30.67;;;;;-149.00;100.00;66333.84;5103885;27;45275;-78
2021/07/20 08:41:39;;;;;;;;;33.00;29.33;;;;;-149.00;100.00;66333.84;5100884;27;45283;-78
2021/07/20 08:44:35;;;;;;;;;35.67;31.00;;;;;-149.00;100.00;66333.84;5101896;27;46265;-78
2021/07/20 08:47:23;;;;;;;;;37.33;31.33;;;;;-149.00;100.00;66333.84;5087968;27;48094;-77
2021/07/20 08:50:15;;;;;;;;;33.33;28.33;;;;;-149.00;100.00;66333.84;5102809;27;45190;-77
2021/07/20 08:53:03;;;;;;;;;29.33;26.67;;;;;-149.00;100.00;66333.84;5105359;27;45357;-78
2021/07/20 08:55:32;;;;;;;;;29.33;29.00;;;;;-149.00;100.00;66333.84;5088913;27;45276;-78
2021/07/20 08:58:17;;;;;;;;;32.00;28.67;;;;;-149.00;100.00;66333.84;5104619;27;46462;-77
2021/07/20 09:00:46;;;;;;;;;32.00;28.00;;;;;-149.00;100.00;66333.84;5084771;27;45799;-77
2021/07/20 09:03:35;;;;;;;;;28.00;27.67;;;;;-149.00;100.00;66333.84;5092730;27;45385;-77
2021/07/20 09:06:05;;;;;;;;;31.33;29.33;;;;;-149.00;100.00;66333.84;5103788;27;45262;-77
2021/07/20 09:09:08;;;;;;;;;28.67;26.00;;;;;-149.00;100.00;66333.84;5085982;27;46297;-76
2021/07/20 09:12:05;;;;;;;;;29.67;27.33;;;;;-149.00;100.00;66333.84;5110714;27;45235;-77
2021/07/20 09:14:34;;;;;;;;;35.33;30.00;;;;;-149.00;100.00;66333.84;5111954;27;44703;-77
2021/07/20 09:17:33;;;;;;;;;30.67;29.00;;;;;-149.00;100.00;66333.84;5088356;27;45513;-77
2021/07/20 09:20:06;;;;;;;;;28.00;27.67;;;;;-149.00;100.00;66333.84;5101776;27;45268;-78
2021/07/20 09:22:55;;;;;;;;;29.67;26.67;;;;;-149.00;100.00;66333.84;5104032;27;45269;-78
2021/07/20 09:25:48;;;;;;;;;29.67;27.00;;;;;-149.00;100.00;66333.84;5107319;27;45311;-77
2021/07/20 09:28:36;;;;;;;;;29.33;26.00;;;;;-149.00;100.00;66333.84;5104211;27;45330;-78
2021/07/20 09:31:09;;;;;;;;;23.00;23.00;;;;;-149.00;100.00;66333.84;5089821;27;47972;-78
2021/07/20 09:34:12;;;;;;;;;23.00;22.67;;;;;-149.00;100.00;66333.84;5107229;27;45365;-77
2021/07/20 09:37:01;;;;;;;;;25.67;21.33;;;;;-149.00;100.00;66333.84;5105661;27;45332;-78
2021/07/20 09:40:02;;;;;;;;;27.33;25.33;;;;;-149.00;100.00;66333.84;5106180;27;45274;-77
2021/07/20 09:42:30;;;;;;;;;25.33;22.33;;;;;-149.00;100.00;66333.84;5090765;27;45345;-78
2021/07/20 09:45:09;;;;;;;;;23.67;22.00;;;;;-149.00;100.00;66333.84;5091915;27;45339;-76
2021/07/20 09:47:37;;;;;;;;;19.33;19.00;;;;;-149.00;100.00;66333.84;5107619;27;45211;-77
2021/07/20 09:50:05;;;;;;;;;21.33;21.33;;;;;-149.00;100.00;66333.84;5089764;27;45400;-77
2021/07/20 09:52:49;;;;;;;;;26.67;23.67;;;;;-149.00;100.00;66333.84;5107043;27;45303;-78
2021/07/20 09:55:35;;;;;;;;;20.67;20.00;;;;;-149.00;100.00;66333.84;5108328;27;45292;-77
2021/07/20 09:58:33;;;;;;;;;21.33;19.33;;;;;-149.00;100.00;66333.84;5086875;27;45450;-78
2021/07/20 10:01:35;;;;;;;;;24.00;22.67;;;;;-149.00;100.00;66333.84;5085143;27;47324;-78
2021/07/20 10:04:45;;;;;;;;;26.67;23.00;;;;;-149.00;100.00;66333.84;5106416;27;45292;-77
2021/07/20 10:07:25;;;;;;;;;26.67;25.33;;;;;-149.00;100.00;66333.84;5020301;28;45265;-78
2021/07/20 10:09:54;;;;;;;;;30.00;29.00;;;;;-149.00;100.00;66333.84;5093563;27;45416;-76
2021/07/20 10:12:28;;;;;;;;;27.67;26.67;;;;;-149.00;100.00;66333.84;5110309;27;45236;-78
2021/07/20 10:15:04;;;;;;;;;25.67;24.00;;;;;-149.00;100.00;66333.84;5107416;27;46383;-78
2021/07/20 10:17:37;;;;;;;;;31.00;29.00;;;;;-149.00;100.00;66333.84;5105676;27;45222;-78
2021/07/20 10:20:03;;;;;;;;;28.67;26.33;;;;;-149.00;100.00;66333.84;5110299;27;44605;-77
2021/07/20 10:22:43;;;;;;;;;29.00;28.00;;;;;-149.00;100.00;66333.84;5103177;27;45138;-77
2021/07/20 10:25:45;;;;;;;;;24.67;24.33;;;;;-149.00;100.00;66333.84;5104878;27;45387;-78
2021/07/20 10:28:17;;;;;;;;;27.00;26.67;;;;;-149.00;100.00;66333.84;5088852;27;45265;-77
2021/07/20 10:30:52;;;;;;;;;28.00;27.33;;;;;-149.00;100.00;66333.84;5092832;27;45193;-78
2021/07/20 10:33:26;;;;;;;;;27.00;24.33;;;;;-149.00;100.00;66333.84;5069205;27;45330;-77
2021/07/20 10:36:00;;;;;;;;;27.67;24.33;;;;;-149.00;100.00;66333.84;5082176;28;45305;-78
2021/07/20 10:38:35;;;;;;;;;28.00;25.33;;;;;-149.00;100.00;66333.84;5085395;28;45369;-78
2021/07/20 10:41:03;;;;;;;;;24.67;22.00;;;;;-149.00;100.00;66333.84;5082255;28;45288;-79
2021/07/20 10:43:37;;;;;;;;;27.00;27.00;;;;;-149.00;100.00;66333.84;5066356;28;45456;-78
2021/07/20 10:46:07;;;;;;;;;26.33;24.33;;;;;-149.00;100.00;66333.84;5083418;28;45368;-78
2021/07/20 10:48:38;;;;;;;;;32.67;29.67;;;;;-149.00;100.00;66333.84;5081808;28;45496;-78
2021/07/20 10:51:41;;;;;;;;;32.00;28.67;;;;;-149.00;100.00;66333.84;5064355;28;45255;-77
2021/07/20 10:54:28;;;;;;;;;31.67;27.67;;;;;-149.00;100.00;66333.84;5068537;28;45525;-78
2021/07/20 10:56:58;;;;;;;;;28.33;25.33;;;;;-149.00;100.00;66333.84;5066793;28;47379;-77
2021/07/20 10:59:43;;;;;;;;;28.67;27.00;;;;;-149.00;100.00;66333.84;5083206;28;45346;-77
2021/07/20 11:02:23;;;;;;;;;32.00;28.67;;;;;-149.00;100.00;66333.84;5087104;28;45256;-77
2021/07/20 11:05:03;;;;;;;;;25.00;24.33;;;;;-149.00;100.00;66333.84;5084751;28;45154;-78
2021/07/20 11:07:46;;;;;;;;;22.33;21.67;;;;;-149.00;100.00;66333.84;5084443;28;45498;-77
2021/07/20 11:10:20;;;;;;;;;23.00;21.67;;;;;-149.00;100.00;66333.84;5086700;28;45312;-77
2021/07/20 11:12:49;;;;;;;;;26.00;24.00;;;;;-149.00;100.00;66333.84;5085279;28;45224;-77
2021/07/20 11:15:16;;;;;;;;;24.33;23.33;;;;;-149.00;100.00;66333.84;5082446;28;45409;-77